sensor_id;sensor_type;location;lat;lon;timestamp;P1;durP1;ratioP1;P2;durP2;ratioP2
22711;SDS011;11523;50.390;8.072;2023-02-28T00:00:01;5.70;;;3.42;;
22711;SDS011;11523;50.390;8.072;2023-02-28T00:02:34;5.07;;;3.05;;
22711;SDS011;11523;50.390;8.072;2023-02-28T00:05:00;4.78;;;3.20;;
22711;SDS011;11523;50.390;8.072;2023-02-28T00:07:28;5.80;;;3.28;;
22711;SDS011;11523;50.390;8.072;2023-02-28T00:09:54;3.83;;;2.90;;
22711;SDS011;11523;50.390;8.072;2023-02-28T00:12:20;4.78;;;3.28;;
22711;SDS011;11523;50.390;8.072;2023-02-28T00:14:46;4.82;;;3.35;;
22711;SDS011;11523;50.390;8.072;2023-02-28T00:17:12;5.95;;;3.78;;
22711;SDS011;11523;50.390;8.072;2023-02-28T00:19:38;4.15;;;3.30;;
22711;SDS011;11523;50.390;8.072;2023-02-28T00:22:04;5.72;;;3.85;;
22711;SDS011;11523;50.390;8.072;2023-02-28T00:24:30;7.63;;;3.97;;
22711;SDS011;11523;50.390;8.072;2023-02-28T00:26:56;5.20;;;3.50;;
22711;SDS011;11523;50.390;8.072;2023-02-28T00:29:22;5.05;;;3.40;;
22711;SDS011;11523;50.390;8.072;2023-02-28T00:31:48;5.78;;;4.00;;
22711;SDS011;11523;50.390;8.072;2023-02-28T00:34:14;5.07;;;3.85;;
22711;SDS011;11523;50.390;8.072;2023-02-28T00:36:40;7.00;;;4.13;;
22711;SDS011;11523;50.390;8.072;2023-02-28T00:39:10;3.90;;;3.50;;
22711;SDS011;11523;50.390;8.072;2023-02-28T00:41:36;6.95;;;3.95;;
22711;SDS011;11523;50.390;8.072;2023-02-28T00:44:02;5.28;;;3.70;;
22711;SDS011;11523;50.390;8.072;2023-02-28T00:46:28;5.72;;;3.50;;
22711;SDS011;11523;50.390;8.072;2023-02-28T00:48:54;4.28;;;3.55;;
22711;SDS011;11523;50.390;8.072;2023-02-28T00:51:20;8.02;;;4.05;;
22711;SDS011;11523;50.390;8.072;2023-02-28T00:53:46;5.15;;;4.13;;
22711;SDS011;11523;50.390;8.072;2023-02-28T00:56:11;4.88;;;3.65;;
22711;SDS011;11523;50.390;8.072;2023-02-28T00:58:38;5.43;;;3.75;;
22711;SDS011;11523;50.390;8.072;2023-02-28T01:01:04;5.65;;;4.00;;
22711;SDS011;11523;50.390;8.072;2023-02-28T01:03:30;4.80;;;3.80;;
22711;SDS011;11523;50.390;8.072;2023-02-28T01:05:56;7.60;;;4.35;;
22711;SDS011;11523;50.390;8.072;2023-02-28T01:08:22;6.15;;;4.43;;
22711;SDS011;11523;50.390;8.072;2023-02-28T01:10:48;5.65;;;4.32;;
22711;SDS011;11523;50.390;8.072;2023-02-28T01:13:14;4.95;;;4.13;;
22711;SDS011;11523;50.390;8.072;2023-02-28T01:15:42;9.32;;;4.78;;
22711;SDS011;11523;50.390;8.072;2023-02-28T01:18:09;6.82;;;3.97;;
22711;SDS011;11523;50.390;8.072;2023-02-28T01:20:38;4.30;;;3.90;;
22711;SDS011;11523;50.390;8.072;2023-02-28T01:23:04;5.50;;;3.78;;
22711;SDS011;11523;50.390;8.072;2023-02-28T01:25:30;5.68;;;4.03;;
22711;SDS011;11523;50.390;8.072;2023-02-28T01:27:56;5.45;;;4.43;;
22711;SDS011;11523;50.390;8.072;2023-02-28T01:30:22;6.07;;;4.28;;
22711;SDS011;11523;50.390;8.072;2023-02-28T01:32:48;6.07;;;4.25;;
22711;SDS011;11523;50.390;8.072;2023-02-28T01:35:16;6.10;;;4.38;;
22711;SDS011;11523;50.390;8.072;2023-02-28T01:37:42;5.10;;;4.13;;
22711;SDS011;11523;50.390;8.072;2023-02-28T01:40:08;7.18;;;4.70;;
22711;SDS011;11523;50.390;8.072;2023-02-28T01:42:34;6.07;;;4.70;;
22711;SDS011;11523;50.390;8.072;2023-02-28T01:47:32;7.07;;;4.53;;
22711;SDS011;11523;50.390;8.072;2023-02-28T01:49:58;7.68;;;4.65;;
22711;SDS011;11523;50.390;8.072;2023-02-28T01:52:26;8.70;;;4.82;;
22711;SDS011;11523;50.390;8.072;2023-02-28T01:54:53;5.65;;;4.70;;
22711;SDS011;11523;50.390;8.072;2023-02-28T01:57:22;5.72;;;4.75;;
22711;SDS011;11523;50.390;8.072;2023-02-28T02:02:15;5.40;;;4.82;;
22711;SDS011;11523;50.390;8.072;2023-02-28T02:04:45;7.10;;;4.38;;
22711;SDS011;11523;50.390;8.072;2023-02-28T02:07:12;4.85;;;4.30;;
22711;SDS011;11523;50.390;8.072;2023-02-28T02:09:38;6.28;;;4.00;;
22711;SDS011;11523;50.390;8.072;2023-02-28T02:12:09;5.75;;;3.83;;
22711;SDS011;11523;50.390;8.072;2023-02-28T02:19:44;6.03;;;4.25;;
22711;SDS011;11523;50.390;8.072;2023-02-28T02:25:19;4.75;;;3.97;;
22711;SDS011;11523;50.390;8.072;2023-02-28T02:27:55;7.05;;;3.97;;
22711;SDS011;11523;50.390;8.072;2023-02-28T02:33:17;4.85;;;4.00;;
22711;SDS011;11523;50.390;8.072;2023-02-28T02:38:33;6.10;;;4.20;;
22711;SDS011;11523;50.390;8.072;2023-02-28T02:43:44;5.35;;;3.90;;
22711;SDS011;11523;50.390;8.072;2023-02-28T02:46:13;8.77;;;3.23;;
22711;SDS011;11523;50.390;8.072;2023-02-28T02:48:41;6.53;;;3.97;;
22711;SDS011;11523;50.390;8.072;2023-02-28T02:51:10;4.30;;;3.60;;
22711;SDS011;11523;50.390;8.072;2023-02-28T02:53:40;4.85;;;3.83;;
22711;SDS011;11523;50.390;8.072;2023-02-28T02:56:07;5.80;;;4.25;;
22711;SDS011;11523;50.390;8.072;2023-02-28T02:58:35;5.85;;;3.92;;
22711;SDS011;11523;50.390;8.072;2023-02-28T03:01:06;5.03;;;4.05;;
22711;SDS011;11523;50.390;8.072;2023-02-28T03:03:34;5.38;;;4.18;;
22711;SDS011;11523;50.390;8.072;2023-02-28T03:06:01;5.93;;;4.40;;
22711;SDS011;11523;50.390;8.072;2023-02-28T03:08:28;6.25;;;3.92;;
22711;SDS011;11523;50.390;8.072;2023-02-28T03:10:59;4.55;;;3.75;;
22711;SDS011;11523;50.390;8.072;2023-02-28T03:13:34;5.07;;;3.65;;
22711;SDS011;11523;50.390;8.072;2023-02-28T03:18:37;4.15;;;3.75;;
22711;SDS011;11523;50.390;8.072;2023-02-28T03:23:53;6.55;;;4.28;;
22711;SDS011;11523;50.390;8.072;2023-02-28T03:26:23;4.97;;;3.78;;
22711;SDS011;11523;50.390;8.072;2023-02-28T03:36:28;9.32;;;3.88;;
22711;SDS011;11523;50.390;8.072;2023-02-28T03:38:58;5.07;;;4.15;;
22711;SDS011;11523;50.390;8.072;2023-02-28T03:41:44;6.00;;;4.22;;
22711;SDS011;11523;50.390;8.072;2023-02-28T03:47:09;5.95;;;4.30;;
22711;SDS011;11523;50.390;8.072;2023-02-28T03:49:40;5.10;;;3.92;;
22711;SDS011;11523;50.390;8.072;2023-02-28T03:52:08;5.32;;;4.30;;
22711;SDS011;11523;50.390;8.072;2023-02-28T03:54:36;6.68;;;4.35;;
22711;SDS011;11523;50.390;8.072;2023-02-28T03:57:07;6.38;;;4.75;;
22711;SDS011;11523;50.390;8.072;2023-02-28T03:59:37;7.15;;;4.57;;
22711;SDS011;11523;50.390;8.072;2023-02-28T04:02:05;7.57;;;4.32;;
22711;SDS011;11523;50.390;8.072;2023-02-28T04:04:31;7.00;;;4.70;;
22711;SDS011;11523;50.390;8.072;2023-02-28T04:07:01;6.15;;;4.75;;
22711;SDS011;11523;50.390;8.072;2023-02-28T04:09:28;7.65;;;4.75;;
22711;SDS011;11523;50.390;8.072;2023-02-28T04:11:54;5.03;;;4.28;;
22711;SDS011;11523;50.390;8.072;2023-02-28T04:14:21;5.30;;;4.53;;
22711;SDS011;11523;50.390;8.072;2023-02-28T04:16:47;6.90;;;4.90;;
22711;SDS011;11523;50.390;8.072;2023-02-28T04:19:13;6.78;;;4.60;;
22711;SDS011;11523;50.390;8.072;2023-02-28T04:21:44;6.60;;;4.60;;
22711;SDS011;11523;50.390;8.072;2023-02-28T04:24:11;7.50;;;4.90;;
22711;SDS011;11523;50.390;8.072;2023-02-28T04:26:42;5.75;;;4.43;;
22711;SDS011;11523;50.390;8.072;2023-02-28T04:29:12;5.53;;;4.35;;
22711;SDS011;11523;50.390;8.072;2023-02-28T04:31:38;6.90;;;4.47;;
22711;SDS011;11523;50.390;8.072;2023-02-28T04:34:04;5.80;;;4.57;;
22711;SDS011;11523;50.390;8.072;2023-02-28T04:36:30;5.30;;;4.68;;
22711;SDS011;11523;50.390;8.072;2023-02-28T04:38:57;6.75;;;4.88;;
22711;SDS011;11523;50.390;8.072;2023-02-28T04:41:22;6.18;;;4.88;;
22711;SDS011;11523;50.390;8.072;2023-02-28T04:43:54;5.47;;;4.60;;
22711;SDS011;11523;50.390;8.072;2023-02-28T04:46:21;7.85;;;5.15;;
22711;SDS011;11523;50.390;8.072;2023-02-28T04:48:47;6.32;;;5.18;;
22711;SDS011;11523;50.390;8.072;2023-02-28T04:51:13;6.45;;;5.13;;
22711;SDS011;11523;50.390;8.072;2023-02-28T04:53:40;9.38;;;5.20;;
22711;SDS011;11523;50.390;8.072;2023-02-28T04:56:07;8.00;;;4.70;;
22711;SDS011;11523;50.390;8.072;2023-02-28T04:58:33;5.32;;;4.55;;
22711;SDS011;11523;50.390;8.072;2023-02-28T05:01:04;5.50;;;4.95;;
22711;SDS011;11523;50.390;8.072;2023-02-28T05:03:37;5.75;;;4.60;;
22711;SDS011;11523;50.390;8.072;2023-02-28T05:06:03;7.43;;;5.13;;
22711;SDS011;11523;50.390;8.072;2023-02-28T05:08:29;5.68;;;4.68;;
22711;SDS011;11523;50.390;8.072;2023-02-28T05:10:55;7.43;;;4.93;;
22711;SDS011;11523;50.390;8.072;2023-02-28T05:13:21;6.32;;;4.72;;
22711;SDS011;11523;50.390;8.072;2023-02-28T05:15:47;6.22;;;4.68;;
22711;SDS011;11523;50.390;8.072;2023-02-28T05:18:13;6.63;;;4.82;;
22711;SDS011;11523;50.390;8.072;2023-02-28T05:20:39;6.88;;;4.53;;
22711;SDS011;11523;50.390;8.072;2023-02-28T05:23:05;6.88;;;4.68;;
22711;SDS011;11523;50.390;8.072;2023-02-28T05:25:31;7.05;;;4.53;;
22711;SDS011;11523;50.390;8.072;2023-02-28T05:27:57;7.70;;;5.18;;
22711;SDS011;11523;50.390;8.072;2023-02-28T05:30:23;5.78;;;4.45;;
22711;SDS011;11523;50.390;8.072;2023-02-28T05:32:50;6.88;;;4.82;;
22711;SDS011;11523;50.390;8.072;2023-02-28T05:35:16;6.65;;;4.93;;
22711;SDS011;11523;50.390;8.072;2023-02-28T05:37:42;6.78;;;5.15;;
22711;SDS011;11523;50.390;8.072;2023-02-28T05:40:08;9.27;;;5.20;;
22711;SDS011;11523;50.390;8.072;2023-02-28T05:42:37;6.95;;;4.95;;
22711;SDS011;11523;50.390;8.072;2023-02-28T05:45:04;6.68;;;4.95;;
22711;SDS011;11523;50.390;8.072;2023-02-28T05:47:31;7.32;;;5.20;;
22711;SDS011;11523;50.390;8.072;2023-02-28T05:49:57;8.05;;;5.30;;
22711;SDS011;11523;50.390;8.072;2023-02-28T05:52:23;6.68;;;5.40;;
22711;SDS011;11523;50.390;8.072;2023-02-28T05:54:49;8.35;;;5.15;;
22711;SDS011;11523;50.390;8.072;2023-02-28T05:57:15;7.00;;;5.30;;
22711;SDS011;11523;50.390;8.072;2023-02-28T05:59:41;7.40;;;5.20;;
22711;SDS011;11523;50.390;8.072;2023-02-28T06:02:10;8.93;;;5.30;;
22711;SDS011;11523;50.390;8.072;2023-02-28T06:04:37;6.72;;;5.35;;
22711;SDS011;11523;50.390;8.072;2023-02-28T06:07:03;6.47;;;4.88;;
22711;SDS011;11523;50.390;8.072;2023-02-28T06:09:29;6.32;;;4.90;;
22711;SDS011;11523;50.390;8.072;2023-02-28T06:11:59;7.47;;;4.80;;
22711;SDS011;11523;50.390;8.072;2023-02-28T06:14:25;6.28;;;4.85;;
22711;SDS011;11523;50.390;8.072;2023-02-28T06:16:51;6.85;;;5.22;;
22711;SDS011;11523;50.390;8.072;2023-02-28T06:19:17;7.05;;;5.85;;
22711;SDS011;11523;50.390;8.072;2023-02-28T06:21:43;7.57;;;5.47;;
22711;SDS011;11523;50.390;8.072;2023-02-28T06:24:10;8.18;;;4.68;;
22711;SDS011;11523;50.390;8.072;2023-02-28T06:26:36;8.05;;;5.40;;
22711;SDS011;11523;50.390;8.072;2023-02-28T06:29:02;7.05;;;5.15;;
22711;SDS011;11523;50.390;8.072;2023-02-28T06:31:28;9.98;;;5.40;;
22711;SDS011;11523;50.390;8.072;2023-02-28T06:33:54;9.30;;;5.72;;
22711;SDS011;11523;50.390;8.072;2023-02-28T06:36:21;6.95;;;5.10;;
22711;SDS011;11523;50.390;8.072;2023-02-28T06:38:47;6.90;;;5.70;;
22711;SDS011;11523;50.390;8.072;2023-02-28T06:41:19;7.80;;;4.80;;
22711;SDS011;11523;50.390;8.072;2023-02-28T06:43:45;10.05;;;5.53;;
22711;SDS011;11523;50.390;8.072;2023-02-28T06:46:12;7.47;;;5.00;;
22711;SDS011;11523;50.390;8.072;2023-02-28T06:48:39;7.63;;;5.30;;
22711;SDS011;11523;50.390;8.072;2023-02-28T06:51:06;7.90;;;5.45;;
22711;SDS011;11523;50.390;8.072;2023-02-28T06:53:32;6.47;;;5.05;;
22711;SDS011;11523;50.390;8.072;2023-02-28T06:55:58;7.97;;;5.00;;
22711;SDS011;11523;50.390;8.072;2023-02-28T06:58:24;9.45;;;5.15;;
22711;SDS011;11523;50.390;8.072;2023-02-28T07:00:51;6.93;;;4.80;;
22711;SDS011;11523;50.390;8.072;2023-02-28T07:03:17;8.68;;;5.10;;
22711;SDS011;11523;50.390;8.072;2023-02-28T07:05:44;7.97;;;4.70;;
22711;SDS011;11523;50.390;8.072;2023-02-28T07:08:10;6.63;;;4.65;;
22711;SDS011;11523;50.390;8.072;2023-02-28T07:10:39;9.85;;;6.60;;
22711;SDS011;11523;50.390;8.072;2023-02-28T07:13:06;9.32;;;6.15;;
22711;SDS011;11523;50.390;8.072;2023-02-28T07:15:32;7.65;;;5.43;;
22711;SDS011;11523;50.390;8.072;2023-02-28T07:17:58;8.10;;;4.90;;
22711;SDS011;11523;50.390;8.072;2023-02-28T07:20:24;5.60;;;4.75;;
22711;SDS011;11523;50.390;8.072;2023-02-28T07:22:50;7.70;;;4.82;;
22711;SDS011;11523;50.390;8.072;2023-02-28T07:25:25;5.75;;;4.72;;
22711;SDS011;11523;50.390;8.072;2023-02-28T07:27:51;7.72;;;5.45;;
22711;SDS011;11523;50.390;8.072;2023-02-28T07:30:17;5.93;;;4.90;;
22711;SDS011;11523;50.390;8.072;2023-02-28T07:32:43;8.65;;;5.03;;
22711;SDS011;11523;50.390;8.072;2023-02-28T07:35:09;8.18;;;4.60;;
22711;SDS011;11523;50.390;8.072;2023-02-28T07:37:35;5.95;;;4.70;;
22711;SDS011;11523;50.390;8.072;2023-02-28T07:40:02;9.75;;;5.05;;
22711;SDS011;11523;50.390;8.072;2023-02-28T07:42:31;8.73;;;5.15;;
22711;SDS011;11523;50.390;8.072;2023-02-28T07:44:56;7.82;;;5.53;;
22711;SDS011;11523;50.390;8.072;2023-02-28T07:47:23;9.45;;;5.03;;
22711;SDS011;11523;50.390;8.072;2023-02-28T07:49:49;8.20;;;5.00;;
22711;SDS011;11523;50.390;8.072;2023-02-28T07:52:15;10.13;;;5.40;;
22711;SDS011;11523;50.390;8.072;2023-02-28T07:54:41;9.77;;;4.68;;
22711;SDS011;11523;50.390;8.072;2023-02-28T07:57:07;7.65;;;4.85;;
22711;SDS011;11523;50.390;8.072;2023-02-28T07:59:33;7.85;;;4.70;;
22711;SDS011;11523;50.390;8.072;2023-02-28T08:01:59;6.75;;;5.07;;
22711;SDS011;11523;50.390;8.072;2023-02-28T08:04:25;8.25;;;4.43;;
22711;SDS011;11523;50.390;8.072;2023-02-28T08:06:51;6.28;;;4.68;;
22711;SDS011;11523;50.390;8.072;2023-02-28T08:09:18;7.68;;;4.90;;
22711;SDS011;11523;50.390;8.072;2023-02-28T08:11:44;7.07;;;4.85;;
22711;SDS011;11523;50.390;8.072;2023-02-28T08:14:10;6.22;;;4.68;;
22711;SDS011;11523;50.390;8.072;2023-02-28T08:16:36;8.65;;;4.70;;
22711;SDS011;11523;50.390;8.072;2023-02-28T08:19:02;6.95;;;4.80;;
22711;SDS011;11523;50.390;8.072;2023-02-28T08:21:28;8.77;;;4.93;;
22711;SDS011;11523;50.390;8.072;2023-02-28T08:23:54;6.30;;;4.40;;
22711;SDS011;11523;50.390;8.072;2023-02-28T08:26:21;7.25;;;5.22;;
22711;SDS011;11523;50.390;8.072;2023-02-28T08:28:47;5.22;;;4.30;;
22711;SDS011;11523;50.390;8.072;2023-02-28T08:31:14;5.47;;;4.43;;
22711;SDS011;11523;50.390;8.072;2023-02-28T08:33:41;6.53;;;4.55;;
22711;SDS011;11523;50.390;8.072;2023-02-28T08:36:07;7.93;;;4.93;;
22711;SDS011;11523;50.390;8.072;2023-02-28T08:38:40;5.18;;;4.32;;
22711;SDS011;11523;50.390;8.072;2023-02-28T08:41:07;6.88;;;4.40;;
22711;SDS011;11523;50.390;8.072;2023-02-28T08:43:34;5.20;;;4.68;;
22711;SDS011;11523;50.390;8.072;2023-02-28T08:46:00;8.10;;;4.45;;
22711;SDS011;11523;50.390;8.072;2023-02-28T08:48:26;7.65;;;4.40;;
22711;SDS011;11523;50.390;8.072;2023-02-28T08:50:56;5.35;;;4.70;;
22711;SDS011;11523;50.390;8.072;2023-02-28T08:53:22;5.07;;;4.45;;
22711;SDS011;11523;50.390;8.072;2023-02-28T08:55:55;5.32;;;3.95;;
22711;SDS011;11523;50.390;8.072;2023-02-28T08:58:21;5.28;;;4.50;;
22711;SDS011;11523;50.390;8.072;2023-02-28T09:00:47;8.50;;;4.28;;
22711;SDS011;11523;50.390;8.072;2023-02-28T09:03:13;5.50;;;4.03;;
22711;SDS011;11523;50.390;8.072;2023-02-28T09:05:38;5.95;;;4.07;;
22711;SDS011;11523;50.390;8.072;2023-02-28T09:08:04;5.72;;;4.53;;
22711;SDS011;11523;50.390;8.072;2023-02-28T09:10:31;4.53;;;3.83;;
22711;SDS011;11523;50.390;8.072;2023-02-28T09:12:57;4.93;;;4.00;;
22711;SDS011;11523;50.390;8.072;2023-02-28T09:15:23;5.90;;;4.20;;
22711;SDS011;11523;50.390;8.072;2023-02-28T09:17:48;5.90;;;4.03;;
22711;SDS011;11523;50.390;8.072;2023-02-28T09:20:14;5.22;;;4.13;;
22711;SDS011;11523;50.390;8.072;2023-02-28T09:22:40;6.53;;;3.63;;
22711;SDS011;11523;50.390;8.072;2023-02-28T09:25:06;5.45;;;4.13;;
22711;SDS011;11523;50.390;8.072;2023-02-28T09:27:32;5.15;;;3.85;;
22711;SDS011;11523;50.390;8.072;2023-02-28T09:29:58;5.25;;;3.90;;
22711;SDS011;11523;50.390;8.072;2023-02-28T09:32:24;7.00;;;4.63;;
22711;SDS011;11523;50.390;8.072;2023-02-28T09:34:50;5.60;;;4.05;;
22711;SDS011;11523;50.390;8.072;2023-02-28T09:37:16;4.45;;;3.75;;
22711;SDS011;11523;50.390;8.072;2023-02-28T09:39:42;5.22;;;3.72;;
22711;SDS011;11523;50.390;8.072;2023-02-28T09:42:12;8.38;;;4.13;;
22711;SDS011;11523;50.390;8.072;2023-02-28T09:49:41;4.95;;;3.70;;
22711;SDS011;11523;50.390;8.072;2023-02-28T09:52:21;6.30;;;3.53;;
22711;SDS011;11523;50.390;8.072;2023-02-28T09:54:50;4.75;;;3.60;;
22711;SDS011;11523;50.390;8.072;2023-02-28T09:57:28;4.20;;;3.55;;
22711;SDS011;11523;50.390;8.072;2023-02-28T10:00:00;4.93;;;3.78;;
22711;SDS011;11523;50.390;8.072;2023-02-28T10:02:41;6.53;;;3.50;;
22711;SDS011;11523;50.390;8.072;2023-02-28T10:05:10;4.10;;;3.50;;
22711;SDS011;11523;50.390;8.072;2023-02-28T10:12:52;5.22;;;3.95;;
22711;SDS011;11523;50.390;8.072;2023-02-28T10:15:19;3.50;;;3.05;;
22711;SDS011;11523;50.390;8.072;2023-02-28T10:17:47;4.22;;;3.63;;
22711;SDS011;11523;50.390;8.072;2023-02-28T10:20:19;5.53;;;4.57;;
22711;SDS011;11523;50.390;8.072;2023-02-28T10:22:51;5.53;;;4.70;;
22711;SDS011;11523;50.390;8.072;2023-02-28T10:25:19;4.22;;;3.83;;
22711;SDS011;11523;50.390;8.072;2023-02-28T10:27:45;5.53;;;3.90;;
22711;SDS011;11523;50.390;8.072;2023-02-28T10:30:11;5.50;;;4.05;;
22711;SDS011;11523;50.390;8.072;2023-02-28T10:32:38;6.10;;;3.80;;
22711;SDS011;11523;50.390;8.072;2023-02-28T10:35:15;4.47;;;3.40;;
22711;SDS011;11523;50.390;8.072;2023-02-28T10:37:42;5.60;;;3.88;;
22711;SDS011;11523;50.390;8.072;2023-02-28T10:40:42;4.50;;;3.67;;
22711;SDS011;11523;50.390;8.072;2023-02-28T10:45:40;4.35;;;3.95;;
22711;SDS011;11523;50.390;8.072;2023-02-28T10:50:50;5.80;;;3.70;;
22711;SDS011;11523;50.390;8.072;2023-02-28T10:58:31;4.25;;;3.85;;
22711;SDS011;11523;50.390;8.072;2023-02-28T11:00:58;4.40;;;3.95;;
22711;SDS011;11523;50.390;8.072;2023-02-28T11:03:29;3.83;;;3.53;;
22711;SDS011;11523;50.390;8.072;2023-02-28T11:05:55;4.20;;;3.80;;
22711;SDS011;11523;50.390;8.072;2023-02-28T11:08:21;4.43;;;3.95;;
22711;SDS011;11523;50.390;8.072;2023-02-28T11:10:59;4.93;;;3.90;;
22711;SDS011;11523;50.390;8.072;2023-02-28T11:13:33;4.85;;;3.85;;
22711;SDS011;11523;50.390;8.072;2023-02-28T11:16:07;5.57;;;3.63;;
22711;SDS011;11523;50.390;8.072;2023-02-28T11:18:49;4.03;;;3.53;;
22711;SDS011;11523;50.390;8.072;2023-02-28T11:21:17;4.88;;;3.72;;
22711;SDS011;11523;50.390;8.072;2023-02-28T11:23:44;4.88;;;4.03;;
22711;SDS011;11523;50.390;8.072;2023-02-28T11:26:10;4.05;;;3.65;;
22711;SDS011;11523;50.390;8.072;2023-02-28T11:28:40;5.75;;;4.15;;
22711;SDS011;11523;50.390;8.072;2023-02-28T11:33:52;4.47;;;3.78;;
22711;SDS011;11523;50.390;8.072;2023-02-28T11:36:25;5.57;;;4.40;;
22711;SDS011;11523;50.390;8.072;2023-02-28T11:38:52;4.93;;;4.05;;
22711;SDS011;11523;50.390;8.072;2023-02-28T11:41:32;4.15;;;3.75;;
22711;SDS011;11523;50.390;8.072;2023-02-28T11:51:54;5.20;;;3.95;;
22711;SDS011;11523;50.390;8.072;2023-02-28T11:54:35;5.07;;;4.20;;
22711;SDS011;11523;50.390;8.072;2023-02-28T11:57:51;4.35;;;3.95;;
22711;SDS011;11523;50.390;8.072;2023-02-28T12:00:15;4.72;;;3.97;;
22711;SDS011;11523;50.390;8.072;2023-02-28T12:05:14;4.68;;;4.20;;
22711;SDS011;11523;50.390;8.072;2023-02-28T12:10:28;4.93;;;4.10;;
22711;SDS011;11523;50.390;8.072;2023-02-28T12:20:33;4.07;;;3.70;;
22711;SDS011;11523;50.390;8.072;2023-02-28T12:28:12;4.80;;;4.30;;
22711;SDS011;11523;50.390;8.072;2023-02-28T12:30:59;5.60;;;4.43;;
22711;SDS011;11523;50.390;8.072;2023-02-28T12:33:27;5.20;;;4.70;;
22711;SDS011;11523;50.390;8.072;2023-02-28T12:35:56;5.53;;;4.55;;
22711;SDS011;11523;50.390;8.072;2023-02-28T12:38:24;7.05;;;4.53;;
22711;SDS011;11523;50.390;8.072;2023-02-28T12:41:00;5.35;;;4.80;;
22711;SDS011;11523;50.390;8.072;2023-02-28T12:43:38;4.97;;;4.50;;
22711;SDS011;11523;50.390;8.072;2023-02-28T12:46:51;6.18;;;5.20;;
22711;SDS011;11523;50.390;8.072;2023-02-28T12:48:54;5.07;;;4.57;;
22711;SDS011;11523;50.390;8.072;2023-02-28T12:51:21;5.93;;;5.35;;
22711;SDS011;11523;50.390;8.072;2023-02-28T12:53:59;5.35;;;4.72;;
22711;SDS011;11523;50.390;8.072;2023-02-28T12:56:35;6.20;;;5.32;;
22711;SDS011;11523;50.390;8.072;2023-02-28T12:59:09;5.88;;;4.80;;
22711;SDS011;11523;50.390;8.072;2023-02-28T13:01:39;5.70;;;5.10;;
22711;SDS011;11523;50.390;8.072;2023-02-28T13:09:22;6.47;;;5.32;;
22711;SDS011;11523;50.390;8.072;2023-02-28T13:11:48;6.10;;;5.43;;
22711;SDS011;11523;50.390;8.072;2023-02-28T13:14:26;6.07;;;5.40;;
22711;SDS011;11523;50.390;8.072;2023-02-28T13:19:35;6.40;;;5.22;;
22711;SDS011;11523;50.390;8.072;2023-02-28T13:22:03;6.10;;;5.25;;
22711;SDS011;11523;50.390;8.072;2023-02-28T13:24:36;5.85;;;5.10;;
22711;SDS011;11523;50.390;8.072;2023-02-28T13:29:38;6.45;;;5.15;;
22711;SDS011;11523;50.390;8.072;2023-02-28T13:34:33;5.47;;;4.93;;
22711;SDS011;11523;50.390;8.072;2023-02-28T13:47:29;6.00;;;5.15;;
22711;SDS011;11523;50.390;8.072;2023-02-28T13:52:45;5.50;;;4.97;;
22711;SDS011;11523;50.390;8.072;2023-02-28T13:55:20;5.80;;;5.20;;
22711;SDS011;11523;50.390;8.072;2023-02-28T13:58:09;7.28;;;5.55;;
22711;SDS011;11523;50.390;8.072;2023-02-28T14:11:06;5.82;;;4.70;;
22711;SDS011;11523;50.390;8.072;2023-02-28T14:16:09;6.35;;;4.75;;
22711;SDS011;11523;50.390;8.072;2023-02-28T14:18:36;7.45;;;4.95;;
22711;SDS011;11523;50.390;8.072;2023-02-28T14:21:10;4.65;;;4.22;;
22711;SDS011;11523;50.390;8.072;2023-02-28T14:26:16;5.05;;;4.38;;
22711;SDS011;11523;50.390;8.072;2023-02-28T14:36:23;6.22;;;5.13;;
22711;SDS011;11523;50.390;8.072;2023-02-28T14:38:57;6.00;;;5.05;;
22711;SDS011;11523;50.390;8.072;2023-02-28T14:41:29;7.40;;;5.30;;
22711;SDS011;11523;50.390;8.072;2023-02-28T14:43:57;5.20;;;4.70;;
22711;SDS011;11523;50.390;8.072;2023-02-28T14:46:45;5.68;;;4.80;;
22711;SDS011;11523;50.390;8.072;2023-02-28T14:49:24;5.43;;;4.63;;
22711;SDS011;11523;50.390;8.072;2023-02-28T14:52:01;6.03;;;4.70;;
22711;SDS011;11523;50.390;8.072;2023-02-28T14:54:27;5.53;;;4.80;;
22711;SDS011;11523;50.390;8.072;2023-02-28T14:56:54;5.05;;;4.55;;
22711;SDS011;11523;50.390;8.072;2023-02-28T14:59:24;5.70;;;5.10;;
22711;SDS011;11523;50.390;8.072;2023-02-28T15:01:51;5.90;;;5.07;;
22711;SDS011;11523;50.390;8.072;2023-02-28T15:04:25;7.15;;;4.90;;
22711;SDS011;11523;50.390;8.072;2023-02-28T15:07:10;5.45;;;4.80;;
22711;SDS011;11523;50.390;8.072;2023-02-28T15:09:36;6.50;;;4.80;;
22711;SDS011;11523;50.390;8.072;2023-02-28T15:12:02;6.60;;;4.88;;
22711;SDS011;11523;50.390;8.072;2023-02-28T15:14:28;5.75;;;5.22;;
22711;SDS011;11523;50.390;8.072;2023-02-28T15:16:59;5.78;;;5.07;;
22711;SDS011;11523;50.390;8.072;2023-02-28T15:19:31;5.57;;;4.82;;
22711;SDS011;11523;50.390;8.072;2023-02-28T15:24:40;4.93;;;4.43;;
22711;SDS011;11523;50.390;8.072;2023-02-28T15:27:11;5.65;;;4.90;;
22711;SDS011;11523;50.390;8.072;2023-02-28T15:29:43;5.75;;;4.80;;
22711;SDS011;11523;50.390;8.072;2023-02-28T15:32:20;5.60;;;5.00;;
22711;SDS011;11523;50.390;8.072;2023-02-28T15:34:46;5.53;;;4.93;;
22711;SDS011;11523;50.390;8.072;2023-02-28T15:40:03;5.78;;;4.93;;
22711;SDS011;11523;50.390;8.072;2023-02-28T15:42:29;5.90;;;5.28;;
22711;SDS011;11523;50.390;8.072;2023-02-28T15:44:56;6.72;;;5.43;;
22711;SDS011;11523;50.390;8.072;2023-02-28T15:47:23;6.15;;;5.10;;
22711;SDS011;11523;50.390;8.072;2023-02-28T15:52:20;6.35;;;5.20;;
22711;SDS011;11523;50.390;8.072;2023-02-28T15:54:47;6.60;;;5.63;;
22711;SDS011;11523;50.390;8.072;2023-02-28T15:57:15;6.90;;;5.57;;
22711;SDS011;11523;50.390;8.072;2023-02-28T15:59:42;7.15;;;5.28;;
22711;SDS011;11523;50.390;8.072;2023-02-28T16:02:19;6.93;;;5.63;;
22711;SDS011;11523;50.390;8.072;2023-02-28T16:04:55;6.15;;;5.50;;
22711;SDS011;11523;50.390;8.072;2023-02-28T16:07:22;6.82;;;6.07;;
22711;SDS011;11523;50.390;8.072;2023-02-28T16:09:49;7.15;;;5.70;;
22711;SDS011;11523;50.390;8.072;2023-02-28T16:12:15;7.55;;;5.45;;
22711;SDS011;11523;50.390;8.072;2023-02-28T16:14:41;7.35;;;5.95;;
22711;SDS011;11523;50.390;8.072;2023-02-28T16:17:12;6.53;;;5.80;;
22711;SDS011;11523;50.390;8.072;2023-02-28T16:19:42;8.05;;;5.40;;
22711;SDS011;11523;50.390;8.072;2023-02-28T16:22:08;6.03;;;5.43;;
22711;SDS011;11523;50.390;8.072;2023-02-28T16:24:35;7.13;;;6.07;;
22711;SDS011;11523;50.390;8.072;2023-02-28T16:27:01;9.23;;;6.10;;
22711;SDS011;11523;50.390;8.072;2023-02-28T16:29:29;6.38;;;5.47;;
22711;SDS011;11523;50.390;8.072;2023-02-28T16:31:55;8.38;;;6.22;;
22711;SDS011;11523;50.390;8.072;2023-02-28T16:34:28;7.05;;;6.00;;
22711;SDS011;11523;50.390;8.072;2023-02-28T16:36:54;9.68;;;5.82;;
22711;SDS011;11523;50.390;8.072;2023-02-28T16:39:20;8.18;;;6.05;;
22711;SDS011;11523;50.390;8.072;2023-02-28T16:41:46;7.10;;;5.75;;
22711;SDS011;11523;50.390;8.072;2023-02-28T16:44:27;6.80;;;5.60;;
22711;SDS011;11523;50.390;8.072;2023-02-28T16:46:54;8.40;;;5.70;;
22711;SDS011;11523;50.390;8.072;2023-02-28T16:49:20;7.03;;;5.85;;
22711;SDS011;11523;50.390;8.072;2023-02-28T16:51:46;6.47;;;5.80;;
22711;SDS011;11523;50.390;8.072;2023-02-28T16:54:12;6.15;;;5.22;;
22711;SDS011;11523;50.390;8.072;2023-02-28T16:56:39;8.00;;;5.95;;
22711;SDS011;11523;50.390;8.072;2023-02-28T16:59:07;7.97;;;5.20;;
22711;SDS011;11523;50.390;8.072;2023-02-28T17:01:34;7.68;;;5.90;;
22711;SDS011;11523;50.390;8.072;2023-02-28T17:04:00;7.22;;;5.63;;
22711;SDS011;11523;50.390;8.072;2023-02-28T17:06:26;11.45;;;5.90;;
22711;SDS011;11523;50.390;8.072;2023-02-28T17:08:53;7.70;;;5.57;;
22711;SDS011;11523;50.390;8.072;2023-02-28T17:11:19;7.63;;;5.57;;
22711;SDS011;11523;50.390;8.072;2023-02-28T17:13:46;7.00;;;5.40;;
22711;SDS011;11523;50.390;8.072;2023-02-28T17:16:29;10.80;;;6.03;;
22711;SDS011;11523;50.390;8.072;2023-02-28T17:18:57;7.95;;;5.65;;